createdAt,value
2022-10-22T00:01:08.909Z,99302.94
2022-10-22T00:03:37.750Z,99307.72
2022-10-22T00:06:05.903Z,99303.03
2022-10-22T00:08:33.985Z,99301.94
2022-10-22T00:11:15.137Z,99300.41
2022-10-22T00:13:43.813Z,99306.75
2022-10-22T00:16:12.717Z,99304.06
2022-10-22T00:18:41.497Z,99306.63
2022-10-22T00:21:09.500Z,99305.09
2022-10-22T00:23:42.068Z,99300.59
2022-10-22T00:26:10.367Z,99294.13
2022-10-22T00:28:39.147Z,99296.66
2022-10-22T00:31:07.091Z,99295.03
2022-10-22T00:33:35.051Z,99307.41
2022-10-22T00:36:03.317Z,99297.06
2022-10-22T00:38:31.245Z,99291.25
2022-10-22T00:40:59.249Z,99288.97
2022-10-22T00:43:27.876Z,99282.13
2022-10-22T00:45:55.664Z,99273.84
2022-10-22T00:48:26.365Z,99277.53
2022-10-22T00:51:04.004Z,99280.03
2022-10-22T00:53:37.235Z,99280.19
2022-10-22T00:56:06.146Z,99279.75
2022-10-22T00:58:35.956Z,99281.78
2022-10-22T01:01:05.725Z,99281.31
2022-10-22T01:03:34.128Z,99276.13
2022-10-22T01:06:04.588Z,99281.00
2022-10-22T01:08:43.700Z,99287.13
2022-10-22T01:11:27.227Z,99287.56
2022-10-22T01:14:21.338Z,99284.78
2022-10-22T01:16:55.599Z,99276.66
2022-10-22T01:19:53.218Z,99286.50
2022-10-22T01:22:43.549Z,99281.66
2022-10-22T01:25:38.838Z,99284.50
2022-10-22T01:28:39.818Z,99279.81
2022-10-22T01:31:08.419Z,99282.34
2022-10-22T01:33:36.859Z,99283.63
2022-10-22T01:36:05.458Z,99285.72
2022-10-22T01:38:33.688Z,99289.19
2022-10-22T01:41:02.119Z,99291.25
2022-10-22T01:43:29.948Z,99282.78
2022-10-22T01:46:00.697Z,99279.28
2022-10-22T01:48:40.947Z,99281.66
2022-10-22T01:51:24.407Z,99278.47
2022-10-22T01:54:16.858Z,99265.91
2022-10-22T01:57:09.928Z,99276.47
2022-10-22T01:59:59.985Z,99272.78
2022-10-22T02:02:31.055Z,99284.91
2022-10-22T02:05:04.520Z,99269.66
2022-10-22T02:07:37.453Z,99265.47
2022-10-22T02:10:07.758Z,99260.25
2022-10-22T02:12:35.860Z,99259.22
2022-10-22T02:15:04.472Z,99253.28
2022-10-22T02:17:34.027Z,99257.88
2022-10-22T02:20:07.759Z,99264.88
2022-10-22T02:22:37.724Z,99268.53
2022-10-22T02:25:06.828Z,99263.66
2022-10-22T02:27:47.071Z,99255.56
2022-10-22T02:30:18.091Z,99256.72
2022-10-22T02:32:56.987Z,99264.09
2022-10-22T02:35:26.878Z,99255.81
2022-10-22T02:37:56.849Z,99260.03
2022-10-22T02:40:25.687Z,99268.16
2022-10-22T02:42:53.737Z,99263.69
2022-10-22T02:45:21.808Z,99279.47
2022-10-22T02:47:50.089Z,99278.56
2022-10-22T02:50:18.009Z,99282.09
2022-10-22T02:52:45.937Z,99290.38
2022-10-22T02:55:14.237Z,99280.75
2022-10-22T02:57:42.617Z,99280.41
2022-10-22T03:00:11.657Z,99272.91
2022-10-22T03:02:39.916Z,99279.56
2022-10-22T03:05:08.269Z,99272.81
2022-10-22T03:07:36.246Z,99273.47
2022-10-22T03:10:04.975Z,99276.66
2022-10-22T03:12:32.789Z,99271.34
2022-10-22T03:15:00.651Z,99266.44
2022-10-22T03:17:28.885Z,99261.59
2022-10-22T03:19:56.719Z,99262.72
2022-10-22T03:22:28.229Z,99254.78
2022-10-22T03:25:01.026Z,99251.22
2022-10-22T03:27:29.830Z,99239.50
2022-10-22T03:29:58.478Z,99233.75
2022-10-22T03:32:26.283Z,99256.25
2022-10-22T03:34:54.328Z,99247.88
2022-10-22T03:37:23.377Z,99250.00
2022-10-22T03:39:51.761Z,99243.22
2022-10-22T03:42:19.857Z,99253.22
2022-10-22T03:44:48.177Z,99247.44
2022-10-22T03:47:16.029Z,99249.38
2022-10-22T03:49:43.826Z,99236.81
2022-10-22T03:52:14.185Z,99220.56
2022-10-22T03:54:42.649Z,99224.53
2022-10-22T03:57:11.227Z,99220.19
2022-10-22T03:59:42.038Z,99232.88
2022-10-22T04:02:10.871Z,99235.25
2022-10-22T04:04:39.850Z,99250.12
2022-10-22T04:07:08.733Z,99248.97
2022-10-22T04:09:37.117Z,99254.75
2022-10-22T04:12:06.736Z,99248.84
2022-10-22T04:14:34.900Z,99247.44
2022-10-22T04:17:02.898Z,99238.81
2022-10-22T04:19:31.110Z,99251.03
2022-10-22T04:22:00.168Z,99242.56
2022-10-22T04:24:28.268Z,99252.53
2022-10-22T04:26:56.540Z,99251.72
2022-10-22T04:29:25.284Z,99251.38
2022-10-22T04:31:53.189Z,99243.69
2022-10-22T04:34:21.479Z,99240.16
2022-10-22T04:36:49.441Z,99234.44
2022-10-22T04:39:17.417Z,99229.16
2022-10-22T04:41:45.597Z,99235.31
2022-10-22T04:44:16.197Z,99243.81
2022-10-22T04:46:45.519Z,99244.41
2022-10-22T04:49:13.435Z,99245.84
2022-10-22T04:51:41.376Z,99235.22
2022-10-22T04:54:09.659Z,99225.47
2022-10-22T04:56:37.587Z,99226.75
2022-10-22T04:59:08.238Z,99234.84
2022-10-22T05:01:42.671Z,99244.16
2022-10-22T05:04:16.830Z,99245.03
2022-10-22T05:06:45.388Z,99238.87
2022-10-22T05:09:18.594Z,99239.16
2022-10-22T05:11:49.190Z,99227.75
2022-10-22T05:14:18.956Z,99233.16
2022-10-22T05:16:49.014Z,99228.25
2022-10-22T05:19:21.145Z,99239.72
2022-10-22T05:21:49.390Z,99248.06
2022-10-22T05:24:17.418Z,99242.28
2022-10-22T05:26:45.310Z,99243.19
2022-10-22T05:29:14.247Z,99241.34
2022-10-22T05:31:42.117Z,99238.34
2022-10-22T05:34:10.041Z,99247.72
2022-10-22T05:36:38.187Z,99239.69
2022-10-22T05:39:06.469Z,99232.84
2022-10-22T05:41:35.917Z,99235.38
2022-10-22T05:44:05.285Z,99239.84
2022-10-22T05:46:35.534Z,99233.78
2022-10-22T05:49:05.820Z,99231.72
2022-10-22T05:51:35.939Z,99247.69
2022-10-22T05:54:06.146Z,99255.31
2022-10-22T05:56:35.187Z,99256.25
2022-10-22T06:01:36.478Z,99246.47
2022-10-22T06:04:06.549Z,99260.06
2022-10-22T06:06:35.616Z,99268.09
2022-10-22T06:09:15.239Z,99275.03
2022-10-22T06:11:43.586Z,99283.13
2022-10-22T06:14:11.708Z,99282.41
2022-10-22T06:16:39.689Z,99287.06
2022-10-22T06:19:08.469Z,99282.88
2022-10-22T06:21:36.277Z,99276.06
2022-10-22T06:24:04.697Z,99276.28
2022-10-22T06:26:33.048Z,99275.75
2022-10-22T06:29:01.067Z,99284.28
2022-10-22T06:31:29.159Z,99276.97
2022-10-22T06:33:57.529Z,99270.37
2022-10-22T06:36:25.686Z,99276.84
2022-10-22T06:38:55.000Z,99283.41
2022-10-22T06:41:28.535Z,99283.34
2022-10-22T06:43:58.065Z,99293.28
2022-10-22T06:46:27.190Z,99296.31
2022-10-22T06:49:00.903Z,99294.13
2022-10-22T06:51:30.213Z,99291.63
2022-10-22T06:53:59.599Z,99288.12
2022-10-22T06:56:30.229Z,99289.72
2022-10-22T06:58:58.975Z,99278.22
2022-10-22T07:01:29.370Z,99290.91
2022-10-22T07:03:58.003Z,99300.72
2022-10-22T07:06:27.389Z,99292.06
2022-10-22T07:08:56.482Z,99284.13
2022-10-22T07:11:27.835Z,99279.22
2022-10-22T07:13:57.829Z,99278.59
2022-10-22T07:16:29.662Z,99284.00
2022-10-22T07:19:04.090Z,99289.38
2022-10-22T07:21:32.848Z,99278.81
2022-10-22T07:24:00.759Z,99283.78
2022-10-22T07:26:31.228Z,99282.31
2022-10-22T07:29:00.565Z,99283.66
2022-10-22T07:31:28.631Z,99283.87
2022-10-22T07:33:57.198Z,99285.91
2022-10-22T07:36:25.436Z,99294.16
2022-10-22T07:38:58.328Z,99289.38
2022-10-22T07:41:28.345Z,99279.06
2022-10-22T07:43:57.307Z,99279.69
2022-10-22T07:46:25.867Z,99272.88
2022-10-22T07:48:54.260Z,99277.28
2022-10-22T07:51:22.509Z,99280.28
2022-10-22T07:53:50.446Z,99282.53
2022-10-22T07:56:18.748Z,99286.84
2022-10-22T07:58:46.610Z,99290.97
2022-10-22T08:01:14.953Z,99287.19
2022-10-22T08:03:43.390Z,99274.88
2022-10-22T08:06:13.682Z,99280.56
2022-10-22T08:08:42.445Z,99286.94
2022-10-22T08:11:11.197Z,99284.84
2022-10-22T08:13:44.145Z,99282.00
2022-10-22T08:16:14.079Z,99277.75
2022-10-22T08:18:42.679Z,99278.88
2022-10-22T08:21:11.888Z,99283.50
2022-10-22T08:23:40.317Z,99276.69
2022-10-22T08:26:08.339Z,99276.13
2022-10-22T08:28:37.794Z,99278.47
2022-10-22T08:31:08.049Z,99275.25
2022-10-22T08:33:36.362Z,99283.44
2022-10-22T08:36:04.788Z,99284.44
2022-10-22T08:38:33.439Z,99286.22
2022-10-22T08:41:08.257Z,99279.63
2022-10-22T08:43:55.331Z,99285.66
2022-10-22T08:46:41.968Z,99293.97
2022-10-22T08:49:19.047Z,99300.34
2022-10-22T08:51:47.100Z,99292.94
2022-10-22T08:54:39.272Z,99298.25
2022-10-22T08:57:13.949Z,99289.69
2022-10-22T08:59:47.579Z,99282.81
2022-10-22T09:02:54.239Z,99291.16
2022-10-22T09:05:28.778Z,99305.53
2022-10-22T09:07:57.662Z,99310.09
2022-10-22T09:10:30.068Z,99302.22
2022-10-22T09:12:58.065Z,99298.03
2022-10-22T09:15:27.207Z,99288.09
2022-10-22T09:18:04.400Z,99289.00
2022-10-22T09:20:45.888Z,99282.44
2022-10-22T09:23:39.351Z,99277.34
2022-10-22T09:26:15.817Z,99285.19
2022-10-22T09:28:44.242Z,99302.63
2022-10-22T09:31:14.755Z,99302.84
2022-10-22T09:33:46.078Z,99302.50
2022-10-22T09:36:17.747Z,99313.22
2022-10-22T09:38:48.968Z,99309.09
2022-10-22T09:41:18.145Z,99309.41
2022-10-22T09:43:50.048Z,99311.50
2022-10-22T09:46:21.218Z,99316.38
2022-10-22T09:48:59.427Z,99306.13
2022-10-22T09:51:53.678Z,99302.88
2022-10-22T09:54:23.930Z,99299.63
2022-10-22T09:57:04.668Z,99288.81
2022-10-22T09:59:38.641Z,99293.22
2022-10-22T10:02:20.267Z,99296.06
2022-10-22T10:04:57.717Z,99293.28
2022-10-22T10:07:32.997Z,99292.91
2022-10-22T10:10:01.390Z,99290.25
2022-10-22T10:12:42.023Z,99283.28
2022-10-22T10:15:34.367Z,99284.59
2022-10-22T10:18:43.737Z,99281.78
2022-10-22T10:21:23.760Z,99286.81
2022-10-22T10:24:00.725Z,99294.13
2022-10-22T10:26:33.267Z,99292.22
2022-10-22T10:29:12.979Z,99279.00
2022-10-22T10:32:04.478Z,99286.94
2022-10-22T10:34:44.565Z,99286.03
2022-10-22T10:37:25.724Z,99287.06
2022-10-22T10:40:31.919Z,99286.94
2022-10-22T10:43:00.527Z,99279.78
2022-10-22T10:45:36.357Z,99294.53
2022-10-22T10:48:13.025Z,99306.09
2022-10-22T10:50:54.698Z,99301.28
2022-10-22T10:53:40.927Z,99306.94
2022-10-22T10:56:42.029Z,99308.37
2022-10-22T10:59:30.681Z,99308.50
2022-10-22T11:02:17.430Z,99306.84
2022-10-22T11:05:12.857Z,99309.09
2022-10-22T11:08:03.640Z,99303.62
2022-10-22T11:10:48.288Z,99299.94
2022-10-22T11:13:32.366Z,99300.72
2022-10-22T11:16:19.399Z,99296.34
2022-10-22T11:18:53.503Z,99291.19
2022-10-22T11:21:28.460Z,99289.12
2022-10-22T11:24:23.909Z,99278.91
2022-10-22T11:26:57.751Z,99280.41
2022-10-22T11:29:32.071Z,99280.44
2022-10-22T11:32:02.949Z,99278.06
2022-10-22T11:34:35.448Z,99271.31
2022-10-22T11:37:05.178Z,99269.53
2022-10-22T11:39:55.851Z,99271.56
2022-10-22T11:42:35.594Z,99266.03
2022-10-22T11:45:13.837Z,99267.59
2022-10-22T11:47:53.450Z,99259.88
2022-10-22T11:50:27.868Z,99254.41
2022-10-22T11:53:02.884Z,99266.03
2022-10-22T11:55:46.228Z,99258.94
2022-10-22T11:58:28.998Z,99254.13
2022-10-22T12:01:10.369Z,99255.66
2022-10-22T12:03:44.457Z,99265.31
2022-10-22T12:06:15.948Z,99260.78
2022-10-22T12:08:50.512Z,99255.72
2022-10-22T12:11:24.588Z,99246.53
2022-10-22T12:13:59.009Z,99260.91
2022-10-22T12:16:37.937Z,99254.41
2022-10-22T12:19:26.813Z,99252.31
2022-10-22T12:22:00.539Z,99258.78
2022-10-22T12:24:37.039Z,99254.06
2022-10-22T12:27:08.697Z,99242.72
2022-10-22T12:29:38.209Z,99244.06
2022-10-22T12:32:06.277Z,99240.72
2022-10-22T12:34:34.850Z,99247.75
2022-10-22T12:37:04.947Z,99245.16
2022-10-22T12:39:35.647Z,99237.94
2022-10-22T12:42:06.498Z,99243.81
2022-10-22T12:44:34.512Z,99253.78
2022-10-22T12:47:02.777Z,99250.06
2022-10-22T12:49:40.379Z,99257.56
2022-10-22T12:52:15.209Z,99254.44
2022-10-22T12:54:45.610Z,99255.97
2022-10-22T12:57:16.076Z,99256.91
2022-10-22T12:59:49.947Z,99259.81
2022-10-22T13:02:24.806Z,99261.81
2022-10-22T13:05:11.969Z,99257.13
2022-10-22T13:07:43.402Z,99255.75
2022-10-22T13:10:27.476Z,99256.66
2022-10-22T13:12:59.140Z,99261.97
2022-10-22T13:15:28.340Z,99262.53
2022-10-22T13:18:20.077Z,99259.56
2022-10-22T13:21:02.107Z,99255.34
2022-10-22T13:23:34.288Z,99253.84
2022-10-22T13:26:15.471Z,99255.22
2022-10-22T13:28:51.358Z,99249.25
2022-10-22T13:31:40.139Z,99253.69
2022-10-22T13:34:11.911Z,99254.06
2022-10-22T13:36:42.281Z,99256.06
2022-10-22T13:39:21.092Z,99264.44
2022-10-22T13:41:50.819Z,99253.09
2022-10-22T13:44:21.809Z,99249.03
2022-10-22T13:46:50.140Z,99257.03
2022-10-22T13:49:20.342Z,99266.59
2022-10-22T13:51:48.422Z,99267.09
2022-10-22T13:54:19.479Z,99272.66
2022-10-22T13:56:47.608Z,99262.66
2022-10-22T13:59:17.351Z,99272.53
2022-10-22T14:01:48.327Z,99271.53
2022-10-22T14:04:16.562Z,99270.22
2022-10-22T14:06:44.613Z,99261.47
2022-10-22T14:09:15.922Z,99262.97
2022-10-22T14:11:44.300Z,99264.97
2022-10-22T14:14:14.527Z,99269.03
2022-10-22T14:16:42.398Z,99270.25
2022-10-22T14:19:15.018Z,99272.88
2022-10-22T14:21:42.993Z,99265.69
2022-10-22T14:24:13.234Z,99266.47
2022-10-22T14:26:41.857Z,99250.84
2022-10-22T14:29:11.157Z,99256.34
2022-10-22T14:34:15.521Z,99268.56
2022-10-22T14:36:44.375Z,99272.72
2022-10-22T14:39:13.644Z,99281.41
2022-10-22T14:41:42.018Z,99266.16
2022-10-22T14:44:14.591Z,99280.75
2022-10-22T14:46:44.503Z,99277.37
2022-10-22T14:49:13.180Z,99269.41
2022-10-22T14:51:41.438Z,99259.47
2022-10-22T14:54:09.547Z,99271.81
2022-10-22T14:56:38.211Z,99274.31
2022-10-22T14:59:06.479Z,99276.94
2022-10-22T15:01:34.749Z,99288.22
2022-10-22T15:04:03.091Z,99289.56
2022-10-22T15:06:31.278Z,99290.13
2022-10-22T15:08:59.408Z,99282.13
2022-10-22T15:11:27.918Z,99282.28
2022-10-22T15:13:57.112Z,99285.44
2022-10-22T15:16:26.029Z,99281.53
2022-10-22T15:18:54.978Z,99275.50
2022-10-22T15:21:25.286Z,99271.16
2022-10-22T15:23:54.962Z,99282.31
2022-10-22T15:26:24.238Z,99297.13
2022-10-22T15:28:52.294Z,99294.69
2022-10-22T15:31:46.557Z,99291.38
2022-10-22T15:34:26.879Z,99284.37
2022-10-22T15:36:57.126Z,99283.06
2022-10-22T15:39:25.959Z,99289.63
2022-10-22T15:41:54.853Z,99285.44
2022-10-22T15:44:26.397Z,99292.16
2022-10-22T15:46:55.904Z,99298.44
2022-10-22T15:49:25.956Z,99306.34
2022-10-22T15:51:54.976Z,99309.00
2022-10-22T15:54:25.536Z,99316.50
2022-10-22T15:56:53.638Z,99321.19
2022-10-22T15:59:22.222Z,99326.16
2022-10-22T16:01:51.029Z,99329.91
2022-10-22T16:04:20.102Z,99331.44
2022-10-22T16:06:50.159Z,99334.44
2022-10-22T16:09:24.347Z,99340.94
2022-10-22T16:14:28.942Z,99350.81
2022-10-22T16:16:57.689Z,99352.63
2022-10-22T16:19:26.261Z,99368.28
2022-10-22T16:21:55.677Z,99366.44
2022-10-22T16:24:24.108Z,99375.53
2022-10-22T16:26:53.397Z,99378.16
2022-10-22T16:29:21.485Z,99385.84
2022-10-22T16:31:49.797Z,99393.63
2022-10-22T16:34:17.748Z,99401.94
2022-10-22T16:36:46.137Z,99409.00
2022-10-22T16:39:14.788Z,99408.47
2022-10-22T16:41:43.246Z,99406.34
2022-10-22T16:44:12.589Z,99410.19
2022-10-22T16:46:40.876Z,99424.09
2022-10-22T16:49:09.423Z,99417.59
2022-10-22T16:51:37.659Z,99423.66
2022-10-22T16:54:08.403Z,99419.13
2022-10-22T16:56:39.566Z,99428.47
2022-10-22T16:59:08.377Z,99432.13
2022-10-22T17:01:40.583Z,99423.16
2022-10-22T17:04:10.853Z,99427.97
2022-10-22T17:06:38.898Z,99420.63
2022-10-22T17:09:06.985Z,99421.00
2022-10-22T17:11:39.214Z,99422.72
2022-10-22T17:14:09.619Z,99426.41
2022-10-22T17:16:38.217Z,99416.94
2022-10-22T17:19:06.975Z,99410.66
2022-10-22T17:21:34.994Z,99418.06
2022-10-22T17:24:03.585Z,99412.97
2022-10-22T17:26:33.519Z,99414.59
2022-10-22T17:29:01.729Z,99426.19
2022-10-22T17:31:33.357Z,99424.81
2022-10-22T17:34:01.689Z,99432.72
2022-10-22T17:36:34.846Z,99427.53
2022-10-22T17:39:07.049Z,99435.53
2022-10-22T17:41:37.336Z,99440.22
2022-10-22T17:44:09.362Z,99442.28
2022-10-22T17:46:38.057Z,99452.59
2022-10-22T17:49:10.949Z,99455.56
2022-10-22T17:51:39.331Z,99442.16
2022-10-22T17:54:09.810Z,99433.94
2022-10-22T17:56:41.766Z,99441.28
2022-10-22T17:59:13.568Z,99446.03
2022-10-22T18:01:45.837Z,99458.22
2022-10-22T18:04:17.381Z,99462.47
2022-10-22T18:06:47.422Z,99474.25
2022-10-22T18:09:18.814Z,99468.37
2022-10-22T18:11:51.557Z,99466.66
2022-10-22T18:14:21.320Z,99465.63
2022-10-22T18:16:49.989Z,99464.78
2022-10-22T18:19:20.179Z,99470.19
2022-10-22T18:21:48.418Z,99479.06
2022-10-22T18:24:17.110Z,99465.03
2022-10-22T18:26:46.542Z,99480.72
2022-10-22T18:29:18.460Z,99489.59
2022-10-22T18:31:47.116Z,99501.03
2022-10-22T18:34:17.768Z,99492.06
2022-10-22T18:36:48.500Z,99503.72
2022-10-22T18:39:20.097Z,99507.16
2022-10-22T18:41:48.288Z,99517.94
2022-10-22T18:44:16.997Z,99512.56
2022-10-22T18:46:45.271Z,99504.19
2022-10-22T18:49:18.647Z,99505.50
2022-10-22T18:51:52.802Z,99507.91
2022-10-22T18:54:24.254Z,99489.25
2022-10-22T18:56:56.279Z,99483.22
2022-10-22T18:59:26.787Z,99496.97
2022-10-22T19:01:57.785Z,99511.34
2022-10-22T19:04:31.239Z,99516.06
2022-10-22T19:06:59.886Z,99518.13
2022-10-22T19:09:27.878Z,99507.75
2022-10-22T19:11:56.558Z,99513.78
2022-10-22T19:14:24.957Z,99504.22
2022-10-22T19:16:53.059Z,99512.59
2022-10-22T19:19:21.878Z,99520.16
2022-10-22T19:21:50.638Z,99518.81
2022-10-22T19:24:19.897Z,99518.00
2022-10-22T19:26:48.749Z,99529.97
2022-10-22T19:29:18.538Z,99528.09
2022-10-22T19:31:47.789Z,99527.09
2022-10-22T19:34:15.896Z,99530.50
2022-10-22T19:36:44.320Z,99535.44
2022-10-22T19:39:15.717Z,99538.91
2022-10-22T19:41:44.000Z,99537.53
2022-10-22T19:44:12.488Z,99552.63
2022-10-22T19:46:40.499Z,99548.81
2022-10-22T19:49:08.481Z,99553.34
2022-10-22T19:51:37.878Z,99555.88
2022-10-22T19:54:07.780Z,99557.22
2022-10-22T19:56:37.860Z,99562.88
2022-10-22T19:59:06.420Z,99558.34
2022-10-22T20:01:34.825Z,99554.72
2022-10-22T20:04:03.425Z,99571.22
2022-10-22T20:06:31.611Z,99561.59
2022-10-22T20:08:59.708Z,99579.88
2022-10-22T20:11:29.405Z,99575.63
2022-10-22T20:13:58.123Z,99574.44
2022-10-22T20:16:29.925Z,99572.97
2022-10-22T20:19:04.022Z,99583.66
2022-10-22T20:21:33.179Z,99581.13
2022-10-22T20:24:01.973Z,99583.72
2022-10-22T20:26:31.859Z,99578.41
2022-10-22T20:28:59.789Z,99588.00
2022-10-22T20:31:29.799Z,99579.06
2022-10-22T20:33:59.962Z,99590.81
2022-10-22T20:36:29.337Z,99594.50
2022-10-22T20:39:05.067Z,99594.19
2022-10-22T20:41:34.517Z,99602.13
2022-10-22T20:44:02.407Z,99590.56
2022-10-22T20:46:32.151Z,99590.37
2022-10-22T20:49:03.098Z,99592.94
2022-10-22T20:51:31.159Z,99605.37
2022-10-22T20:53:59.060Z,99604.72
2022-10-22T20:56:27.537Z,99608.56
2022-10-22T20:59:04.697Z,99612.75
2022-10-22T21:01:36.930Z,99613.91
2022-10-22T21:04:05.430Z,99611.56
2022-10-22T21:06:38.121Z,99615.53
2022-10-22T21:09:13.987Z,99615.56
2022-10-22T21:11:43.688Z,99611.72
2022-10-22T21:14:13.991Z,99623.16
2022-10-22T21:16:44.279Z,99619.97
2022-10-22T21:19:12.341Z,99620.13
2022-10-22T21:21:40.156Z,99622.69
2022-10-22T21:24:08.626Z,99627.31
2022-10-22T21:26:38.561Z,99625.81
2022-10-22T21:29:06.810Z,99634.13
2022-10-22T21:31:35.119Z,99638.62
2022-10-22T21:34:02.949Z,99650.47
2022-10-22T21:36:30.827Z,99650.47
2022-10-22T21:38:59.017Z,99641.78
2022-10-22T21:41:26.890Z,99640.16
2022-10-22T21:43:54.937Z,99650.13
2022-10-22T21:46:26.119Z,99640.78
2022-10-22T21:48:59.520Z,99648.63
2022-10-22T21:51:28.747Z,99645.88
2022-10-22T21:53:56.649Z,99649.41
2022-10-22T21:56:28.196Z,99636.25
2022-10-22T21:58:56.718Z,99627.97
2022-10-22T22:01:25.354Z,99647.78
2022-10-22T22:03:53.707Z,99650.53
2022-10-22T22:06:35.957Z,99652.16
2022-10-22T22:09:05.430Z,99649.97
2022-10-22T22:11:33.712Z,99649.50
2022-10-22T22:14:01.565Z,99643.75
2022-10-22T22:16:31.740Z,99647.94
2022-10-22T22:19:05.671Z,99650.84
2022-10-22T22:21:35.589Z,99654.44
2022-10-22T22:24:04.298Z,99661.62
2022-10-22T22:26:32.527Z,99662.12
2022-10-22T22:29:00.716Z,99664.09
2022-10-22T22:31:30.908Z,99670.12
2022-10-22T22:34:00.425Z,99666.44
2022-10-22T22:36:32.438Z,99662.84
2022-10-22T22:39:00.326Z,99669.19
2022-10-22T22:41:28.429Z,99665.09
2022-10-22T22:46:29.318Z,99671.78
2022-10-22T22:48:57.150Z,99672.25
2022-10-22T22:51:25.210Z,99667.38
2022-10-22T22:53:53.482Z,99671.63
2022-10-22T22:56:23.657Z,99679.09
2022-10-22T22:58:51.997Z,99676.91
2022-10-22T23:01:21.290Z,99672.41
2022-10-22T23:04:19.143Z,99679.41
2022-10-22T23:06:47.379Z,99675.31
2022-10-22T23:09:16.359Z,99684.59
2022-10-22T23:11:45.514Z,99674.81
2022-10-22T23:14:15.597Z,99672.84
2022-10-22T23:16:46.803Z,99667.00
2022-10-22T23:19:18.016Z,99663.84
2022-10-22T23:21:49.155Z,99669.31
2022-10-22T23:24:20.065Z,99664.97
2022-10-22T23:26:50.185Z,99668.44
2022-10-22T23:29:19.875Z,99666.37
2022-10-22T23:31:48.838Z,99668.94
2022-10-22T23:36:52.529Z,99662.22
2022-10-22T23:39:22.377Z,99652.72
2022-10-22T23:41:50.987Z,99657.00
2022-10-22T23:44:19.186Z,99651.97
2022-10-22T23:46:47.205Z,99651.75
2022-10-22T23:49:15.808Z,99648.28
2022-10-22T23:51:43.996Z,99634.41
2022-10-22T23:54:15.435Z,99634.19
2022-10-22T23:56:43.618Z,99640.94
2022-10-22T23:59:11.646Z,99652.25
